Time;durP1;ratioP1;P1;durP2;ratioP2;P2;SDS_P1;SDS_P2;PMS_P1;PMS_P2;Temp;Humidity;BMP_temperature;BMP_pressure;BME280_temperature;BME280_humidity;BME280_pressure;Samples;Min_cycle;Max_cycle;Signal;HPM_P1;HPM_P2
2022/07/04 00:01:09;;;;;;;1.73;0.90;;;;;;;;;;8322656;28;20145;-58
2022/07/04 00:05:10;;;;;;;1.80;0.80;;;;;;;;;;8323379;28;20029;-59
2022/07/04 00:09:10;;;;;;;3.67;0.90;;;;;;;;;;8322442;28;20021;-58
2022/07/04 00:13:10;;;;;;;1.15;0.90;;;;;;;;;;8324764;28;20031;-57
2022/07/04 00:17:11;;;;;;;2.03;0.90;;;;;;;;;;8326618;28;20118;-57
2022/07/04 00:21:11;;;;;;;2.43;1.20;;;;;;;;;;8314992;28;20090;-58
2022/07/04 00:25:11;;;;;;;1.67;0.90;;;;;;;;;;8323507;28;20379;-58
2022/07/04 00:29:11;;;;;;;1.98;0.85;;;;;;;;;;8321667;28;20040;-58
2022/07/04 00:33:12;;;;;;;3.13;0.82;;;;;;;;;;8318587;28;20035;-58
2022/07/04 00:37:12;;;;;;;4.85;0.85;;;;;;;;;;8325445;28;20029;-57
2022/07/04 00:41:13;;;;;;;1.77;0.82;;;;;;;;;;8326249;28;20028;-57
2022/07/04 00:45:13;;;;;;;2.50;0.80;;;;;;;;;;8323447;28;20389;-58
2022/07/04 00:49:14;;;;;;;2.07;0.93;;;;;;;;;;8320569;28;20036;-57
2022/07/04 00:53:15;;;;;;;1.95;0.80;;;;;;;;;;8325078;28;20686;-57
2022/07/04 00:57:15;;;;;;;1.45;0.90;;;;;;;;;;8321174;28;20102;-57
2022/07/04 01:01:15;;;;;;;3.28;0.85;;;;;;;;;;8319636;28;20037;-59
2022/07/04 01:05:16;;;;;;;2.05;0.80;;;;;;;;;;8323200;28;20075;-59
2022/07/04 01:09:16;;;;;;;1.58;0.75;;;;;;;;;;8324135;28;20126;-59
2022/07/04 01:13:20;;;;;;;1.58;0.98;;;;;;;;;;8325379;28;20020;-57
2022/07/04 01:17:20;;;;;;;2.83;0.90;;;;;;;;;;8324228;28;20253;-57
2022/07/04 01:21:21;;;;;;;1.13;0.82;;;;;;;;;;8321797;28;20035;-57
2022/07/04 01:25:21;;;;;;;2.23;1.10;;;;;;;;;;8323982;28;20040;-57
2022/07/04 01:29:21;;;;;;;1.98;1.00;;;;;;;;;;8321220;28;21326;-57
2022/07/04 01:33:21;;;;;;;1.20;0.90;;;;;;;;;;8321543;28;20358;-57
2022/07/04 01:37:22;;;;;;;1.80;1.00;;;;;;;;;;8320295;28;20071;-59
2022/07/04 01:41:22;;;;;;;5.60;1.10;;;;;;;;;;8319488;28;20436;-59
2022/07/04 01:45:22;;;;;;;2.25;1.08;;;;;;;;;;8320101;28;20048;-59
2022/07/04 01:49:22;;;;;;;4.28;1.10;;;;;;;;;;8319974;28;20367;-59
2022/07/04 01:53:23;;;;;;;1.92;0.80;;;;;;;;;;8319027;28;20376;-57
2022/07/04 01:57:23;;;;;;;1.75;0.82;;;;;;;;;;8322027;28;20981;-57
2022/07/04 02:01:29;;;;;;;2.13;1.10;;;;;;;;;;8322146;28;20037;-57
2022/07/04 02:05:29;;;;;;;1.30;0.90;;;;;;;;;;8321477;28;20286;-59
2022/07/04 02:09:30;;;;;;;1.60;0.80;;;;;;;;;;8323473;28;20068;-56
2022/07/04 02:13:30;;;;;;;3.50;1.15;;;;;;;;;;8321750;28;20029;-57
2022/07/04 02:17:31;;;;;;;4.10;1.02;;;;;;;;;;8321256;28;20072;-59
2022/07/04 02:21:31;;;;;;;2.38;1.00;;;;;;;;;;8322840;28;20032;-59
2022/07/04 02:25:31;;;;;;;4.13;0.98;;;;;;;;;;8318712;28;20458;-57
2022/07/04 02:29:31;;;;;;;1.02;0.90;;;;;;;;;;8323553;28;20069;-57
2022/07/04 02:33:31;;;;;;;2.00;1.10;;;;;;;;;;8320626;28;20315;-57
2022/07/04 02:37:32;;;;;;;1.35;1.20;;;;;;;;;;8320757;28;20027;-59
2022/07/04 02:41:33;;;;;;;2.90;1.10;;;;;;;;;;8318479;28;20368;-57
2022/07/04 02:45:33;;;;;;;0.82;0.82;;;;;;;;;;8320575;28;20272;-57
2022/07/04 02:49:33;;;;;;;2.13;1.20;;;;;;;;;;8321475;28;20078;-57
2022/07/04 02:53:33;;;;;;;1.83;1.10;;;;;;;;;;8317578;28;20067;-57
2022/07/04 02:57:37;;;;;;;3.92;1.20;;;;;;;;;;8325088;28;20032;-57
2022/07/04 03:01:37;;;;;;;2.38;0.98;;;;;;;;;;8324849;28;20041;-57
2022/07/04 03:05:37;;;;;;;2.67;1.20;;;;;;;;;;8326915;28;20029;-57
2022/07/04 03:09:37;;;;;;;2.88;1.10;;;;;;;;;;8326501;28;20031;-58
2022/07/04 03:13:41;;;;;;;2.47;1.20;;;;;;;;;;8325593;28;20037;-57
2022/07/04 03:17:41;;;;;;;2.55;1.05;;;;;;;;;;8325802;28;20029;-57
2022/07/04 03:21:41;;;;;;;3.13;1.20;;;;;;;;;;8326727;28;20107;-58
2022/07/04 03:25:41;;;;;;;2.10;1.67;;;;;;;;;;8328422;28;20056;-58
2022/07/04 03:29:42;;;;;;;1.10;1.00;;;;;;;;;;8326736;28;20680;-57
2022/07/04 03:33:42;;;;;;;6.30;1.35;;;;;;;;;;8323580;28;20032;-58
2022/07/04 03:37:42;;;;;;;2.78;1.15;;;;;;;;;;8328164;28;20457;-58
2022/07/04 03:41:42;;;;;;;3.80;1.58;;;;;;;;;;8324753;28;20040;-57
2022/07/04 03:45:42;;;;;;;1.83;1.10;;;;;;;;;;8324719;28;20153;-57
2022/07/04 03:49:43;;;;;;;5.55;1.10;;;;;;;;;;8322392;28;20057;-57
2022/07/04 03:53:43;;;;;;;3.15;1.08;;;;;;;;;;8324295;28;20146;-58
2022/07/04 03:57:43;;;;;;;3.45;1.17;;;;;;;;;;8326823;28;20029;-57
2022/07/04 04:01:43;;;;;;;1.60;1.05;;;;;;;;;;8326124;28;20042;-57
2022/07/04 04:05:43;;;;;;;4.90;1.20;;;;;;;;;;8323389;28;20029;-57
2022/07/04 04:09:44;;;;;;;2.17;1.10;;;;;;;;;;8326087;28;20024;-58
2022/07/04 04:13:44;;;;;;;3.85;1.40;;;;;;;;;;8320287;28;20025;-58
2022/07/04 04:17:44;;;;;;;3.03;1.60;;;;;;;;;;8322754;28;20476;-58
2022/07/04 04:21:45;;;;;;;11.18;1.70;;;;;;;;;;8323486;28;20259;-58
2022/07/04 04:25:45;;;;;;;4.53;1.30;;;;;;;;;;8323393;28;20264;-57
2022/07/04 04:29:45;;;;;;;1.70;1.10;;;;;;;;;;8321905;28;20037;-58
2022/07/04 04:33:45;;;;;;;2.63;1.17;;;;;;;;;;8319794;28;20060;-59
2022/07/04 04:37:45;;;;;;;2.58;1.15;;;;;;;;;;8323253;28;20059;-58
2022/07/04 04:41:45;;;;;;;1.88;1.20;;;;;;;;;;8320228;28;20115;-57
2022/07/04 04:45:46;;;;;;;2.70;1.27;;;;;;;;;;8323437;28;20045;-58
2022/07/04 04:49:47;;;;;;;4.20;1.35;;;;;;;;;;8322518;28;20026;-57
2022/07/04 04:53:47;;;;;;;1.88;1.00;;;;;;;;;;8324020;28;20020;-57
2022/07/04 04:57:47;;;;;;;2.08;1.10;;;;;;;;;;8323466;28;20036;-57
2022/07/04 05:01:47;;;;;;;3.92;1.17;;;;;;;;;;8321255;28;20590;-57
2022/07/04 05:05:47;;;;;;;2.33;1.13;;;;;;;;;;8322811;28;20122;-57
2022/07/04 05:09:48;;;;;;;5.28;1.27;;;;;;;;;;8324355;28;20110;-58
2022/07/04 05:13:48;;;;;;;2.33;1.00;;;;;;;;;;8322690;28;20024;-58
2022/07/04 05:17:48;;;;;;;2.95;1.10;;;;;;;;;;8319927;28;20462;-57
2022/07/04 05:21:48;;;;;;;2.87;1.17;;;;;;;;;;8318156;28;20247;-58
2022/07/04 05:25:48;;;;;;;1.45;1.10;;;;;;;;;;8322708;28;20286;-58
2022/07/04 05:29:51;;;;;;;2.08;1.10;;;;;;;;;;8325649;28;20025;-58
2022/07/04 05:33:52;;;;;;;4.33;1.40;;;;;;;;;;8322378;28;21417;-59
2022/07/04 05:37:53;;;;;;;2.15;1.02;;;;;;;;;;8320096;28;20114;-59
2022/07/04 05:41:53;;;;;;;3.95;1.30;;;;;;;;;;8321944;28;20196;-58
2022/07/04 05:45:53;;;;;;;1.48;0.90;;;;;;;;;;8322438;28;20127;-58
2022/07/04 05:49:53;;;;;;;4.15;1.10;;;;;;;;;;8319981;28;20033;-58
2022/07/04 05:53:54;;;;;;;2.05;1.08;;;;;;;;;;8326418;28;20134;-58
2022/07/04 05:57:55;;;;;;;2.38;1.10;;;;;;;;;;8320885;28;20141;-59
2022/07/04 06:01:56;;;;;;;2.92;1.10;;;;;;;;;;8323198;28;20179;-58
2022/07/04 06:05:56;;;;;;;2.90;1.20;;;;;;;;;;8323343;28;20052;-58
2022/07/04 06:09:57;;;;;;;1.00;0.93;;;;;;;;;;8322099;28;20605;-58
2022/07/04 06:13:57;;;;;;;3.85;1.00;;;;;;;;;;8323007;28;20593;-58
2022/07/04 06:17:57;;;;;;;3.38;1.10;;;;;;;;;;8318864;28;20743;-58
2022/07/04 06:21:57;;;;;;;1.95;1.10;;;;;;;;;;8323542;28;20054;-58
2022/07/04 06:25:57;;;;;;;3.65;1.00;;;;;;;;;;8320780;28;20456;-58
2022/07/04 06:29:58;;;;;;;1.90;1.00;;;;;;;;;;8322554;28;20029;-58
2022/07/04 06:38:25;;;;;;;2.72;1.00;;;;;;;;;;8323890;28;20043;-58
2022/07/04 06:42:25;;;;;;;2.42;1.00;;;;;;;;;;8329046;28;20033;-59
2022/07/04 06:46:25;;;;;;;2.35;0.80;;;;;;;;;;8328228;28;20037;-59
2022/07/04 06:50:26;;;;;;;2.30;0.90;;;;;;;;;;8326266;28;20025;-58
2022/07/04 06:54:26;;;;;;;3.60;1.10;;;;;;;;;;8326811;28;20426;-58
2022/07/04 06:58:26;;;;;;;5.82;1.13;;;;;;;;;;8325952;28;20051;-59
2022/07/04 07:02:26;;;;;;;2.07;0.90;;;;;;;;;;8326062;28;20471;-60
2022/07/04 07:06:26;;;;;;;2.63;0.90;;;;;;;;;;8327738;28;20035;-58
2022/07/04 07:10:27;;;;;;;3.22;0.80;;;;;;;;;;8321793;28;20029;-58
2022/07/04 07:14:27;;;;;;;2.60;1.10;;;;;;;;;;8325422;28;20134;-59
2022/07/04 07:18:27;;;;;;;2.83;1.10;;;;;;;;;;8323564;28;20500;-58
2022/07/04 07:22:27;;;;;;;2.80;1.00;;;;;;;;;;8326181;28;20033;-59
2022/07/04 07:26:27;;;;;;;2.13;0.90;;;;;;;;;;8325967;28;20064;-58
2022/07/04 07:30:28;;;;;;;3.40;1.00;;;;;;;;;;8324695;28;20033;-58
2022/07/04 07:34:28;;;;;;;2.00;0.80;;;;;;;;;;8324812;28;20602;-58
2022/07/04 07:38:28;;;;;;;3.40;1.10;;;;;;;;;;8326349;28;20033;-58
2022/07/04 07:42:28;;;;;;;4.38;1.02;;;;;;;;;;8325317;28;20029;-58
2022/07/04 07:46:29;;;;;;;6.60;0.90;;;;;;;;;;8322305;28;20037;-59
2022/07/04 07:50:29;;;;;;;2.85;0.90;;;;;;;;;;8324714;28;20127;-59
2022/07/04 07:54:29;;;;;;;2.13;0.87;;;;;;;;;;8327546;28;20446;-58
2022/07/04 07:58:29;;;;;;;3.47;0.90;;;;;;;;;;8326686;28;20098;-58
2022/07/04 08:06:48;;;;;;;2.00;1.00;;;;;;;;;;8328239;28;20517;-58
2022/07/04 08:10:49;;;;;;;2.37;1.00;;;;;;;;;;8327802;28;20029;-59
2022/07/04 08:14:49;;;;;;;3.42;1.20;;;;;;;;;;8327999;28;20256;-59
2022/07/04 08:18:49;;;;;;;4.53;1.10;;;;;;;;;;8326114;28;20040;-59
2022/07/04 08:22:49;;;;;;;2.25;0.90;;;;;;;;;;8325654;28;20040;-58
2022/07/04 08:26:51;;;;;;;1.55;0.80;;;;;;;;;;8324568;28;20400;-58
2022/07/04 08:30:51;;;;;;;3.05;0.98;;;;;;;;;;8321364;28;20958;-58
2022/07/04 08:34:52;;;;;;;2.63;0.90;;;;;;;;;;8324895;28;20025;-59
2022/07/04 08:38:52;;;;;;;1.63;0.90;;;;;;;;;;8326315;28;20816;-59
2022/07/04 08:42:53;;;;;;;3.00;0.95;;;;;;;;;;8319513;28;20404;-59
2022/07/04 08:46:54;;;;;;;1.27;0.70;;;;;;;;;;8322696;28;20509;-59
2022/07/04 08:50:56;;;;;;;4.60;0.90;;;;;;;;;;8321274;28;20024;-60
2022/07/04 08:59:15;;;;;;;2.03;0.90;;;;;;;;;;8323929;28;20040;-57
2022/07/04 09:03:17;;;;;;;2.13;0.80;;;;;;;;;;8322469;28;20045;-59
2022/07/04 09:07:18;;;;;;;3.15;0.80;;;;;;;;;;8323198;28;20589;-59
2022/07/04 09:11:18;;;;;;;1.23;0.70;;;;;;;;;;8321262;28;20945;-59
2022/07/04 09:15:19;;;;;;;2.15;1.00;;;;;;;;;;8320569;28;20022;-58
2022/07/04 09:19:20;;;;;;;4.07;0.93;;;;;;;;;;8324221;28;20025;-59
2022/07/04 09:23:25;;;;;;;3.50;0.88;;;;;;;;;;8321600;28;20028;-59
2022/07/04 09:27:30;;;;;;;3.50;1.00;;;;;;;;;;8324474;28;20062;-58
2022/07/04 09:31:31;;;;;;;2.60;0.90;;;;;;;;;;8320925;28;20061;-58
2022/07/04 09:35:35;;;;;;;2.13;0.80;;;;;;;;;;8320752;28;20048;-58
2022/07/04 09:39:36;;;;;;;3.72;0.82;;;;;;;;;;8321721;28;20494;-58
2022/07/04 09:43:36;;;;;;;1.90;1.00;;;;;;;;;;8320604;28;20028;-58
2022/07/04 09:47:38;;;;;;;3.23;0.80;;;;;;;;;;8319923;28;20048;-59
2022/07/04 09:51:42;;;;;;;4.03;0.80;;;;;;;;;;8320360;28;20029;-58
2022/07/04 09:55:42;;;;;;;2.85;0.77;;;;;;;;;;8321102;28;20569;-59
2022/07/04 09:59:43;;;;;;;3.17;0.80;;;;;;;;;;8322615;28;20054;-59
2022/07/04 10:03:43;;;;;;;1.95;0.98;;;;;;;;;;8322519;28;20529;-58
2022/07/04 10:07:47;;;;;;;2.22;0.80;;;;;;;;;;8321774;28;20504;-59
2022/07/04 10:11:47;;;;;;;3.80;0.70;;;;;;;;;;8329061;28;20036;-58
2022/07/04 10:15:48;;;;;;;1.60;0.80;;;;;;;;;;8328947;28;20086;-58
2022/07/04 10:19:51;;;;;;;0.60;0.60;;;;;;;;;;8326170;28;20071;-58
2022/07/04 10:23:52;;;;;;;1.58;0.80;;;;;;;;;;8330635;28;20029;-58
2022/07/04 10:27:52;;;;;;;3.10;0.82;;;;;;;;;;8324280;28;20574;-59
2022/07/04 10:31:53;;;;;;;1.25;0.80;;;;;;;;;;8326567;28;20313;-58
2022/07/04 10:35:54;;;;;;;1.25;0.85;;;;;;;;;;8331710;28;20109;-59
2022/07/04 10:39:54;;;;;;;0.77;0.68;;;;;;;;;;8325217;28;20621;-59
2022/07/04 10:43:56;;;;;;;1.13;0.70;;;;;;;;;;8324309;28;20101;-59
2022/07/04 10:47:58;;;;;;;0.95;0.60;;;;;;;;;;8325853;28;21700;-58
2022/07/04 10:52:10;;;;;;;3.47;0.73;;;;;;;;;;8327399;28;20017;-57
2022/07/04 10:56:19;;;;;;;3.97;0.95;;;;;;;;;;8325848;28;20344;-57
2022/07/04 11:00:19;;;;;;;1.23;0.70;;;;;;;;;;8326217;28;20029;-59
2022/07/04 11:04:38;;;;;;;1.08;0.65;;;;;;;;;;8331545;28;20143;-58
2022/07/04 11:08:57;;;;;;;0.93;0.80;;;;;;;;;;8326704;28;20064;-58
2022/07/04 11:12:57;;;;;;;1.52;0.70;;;;;;;;;;8327518;28;20294;-58
2022/07/04 11:16:57;;;;;;;3.00;0.90;;;;;;;;;;8326214;28;20041;-58
2022/07/04 11:20:58;;;;;;;0.83;0.73;;;;;;;;;;8327449;28;20021;-58
2022/07/04 11:24:58;;;;;;;1.07;0.70;;;;;;;;;;8327730;28;20025;-57
2022/07/04 11:28:59;;;;;;;2.57;0.67;;;;;;;;;;8328464;28;20017;-59
2022/07/04 11:32:59;;;;;;;2.80;0.70;;;;;;;;;;8323495;28;20037;-59
2022/07/04 11:37:02;;;;;;;0.93;0.70;;;;;;;;;;8327775;28;20078;-59
2022/07/04 11:45:23;;;;;;;1.00;0.60;;;;;;;;;;8323566;28;20044;-59
2022/07/04 11:49:23;;;;;;;1.10;0.80;;;;;;;;;;8327627;28;20021;-59
2022/07/04 11:53:23;;;;;;;1.40;0.73;;;;;;;;;;8327109;28;20112;-59
2022/07/04 11:57:25;;;;;;;1.02;0.70;;;;;;;;;;8325638;28;20016;-58
2022/07/04 12:01:28;;;;;;;1.52;0.80;;;;;;;;;;8322847;28;20118;-58
2022/07/04 12:05:28;;;;;;;1.25;0.68;;;;;;;;;;8326951;28;20048;-59
2022/07/04 12:09:28;;;;;;;1.80;0.70;;;;;;;;;;8324537;28;20049;-60
2022/07/04 12:13:30;;;;;;;1.90;0.85;;;;;;;;;;8328346;28;20511;-58
2022/07/04 12:17:31;;;;;;;1.13;0.70;;;;;;;;;;8323728;28;20029;-59
2022/07/04 12:21:31;;;;;;;0.90;0.70;;;;;;;;;;8324156;28;20067;-59
2022/07/04 12:25:34;;;;;;;0.85;0.65;;;;;;;;;;8327363;28;20024;-59
2022/07/04 12:29:34;;;;;;;0.75;0.70;;;;;;;;;;8325439;28;20031;-60
2022/07/04 12:33:34;;;;;;;1.02;0.60;;;;;;;;;;8320683;28;20361;-59
2022/07/04 12:37:35;;;;;;;1.63;0.82;;;;;;;;;;8318066;28;20029;-59
2022/07/04 12:41:35;;;;;;;1.37;0.77;;;;;;;;;;8319819;28;20036;-61
2022/07/04 12:45:49;;;;;;;1.10;0.68;;;;;;;;;;8320313;28;20036;-58
2022/07/04 12:49:49;;;;;;;1.92;0.60;;;;;;;;;;8317259;28;20095;-58
2022/07/04 12:53:50;;;;;;;0.60;0.60;;;;;;;;;;8320147;28;20029;-58
2022/07/04 12:57:50;;;;;;;1.65;0.70;;;;;;;;;;8319495;28;20211;-58
2022/07/04 13:01:50;;;;;;;1.00;0.70;;;;;;;;;;8318191;28;20434;-59
2022/07/04 13:05:51;;;;;;;1.05;0.80;;;;;;;;;;8317458;28;20266;-58
2022/07/04 13:09:51;;;;;;;1.43;0.80;;;;;;;;;;8319520;28;20036;-59
2022/07/04 13:13:51;;;;;;;1.05;0.70;;;;;;;;;;8318824;28;20430;-58
2022/07/04 13:17:51;;;;;;;2.08;0.57;;;;;;;;;;8316501;28;20072;-58
2022/07/04 13:21:53;;;;;;;3.13;0.73;;;;;;;;;;8319967;28;20037;-59
2022/07/04 13:25:53;;;;;;;0.63;0.60;;;;;;;;;;8316310;28;20820;-58
2022/07/04 13:29:53;;;;;;;2.00;0.80;;;;;;;;;;8319104;28;20029;-58
2022/07/04 13:33:53;;;;;;;1.50;0.88;;;;;;;;;;8316458;28;20033;-59
2022/07/04 13:37:53;;;;;;;3.20;0.63;;;;;;;;;;8318935;28;20520;-58
2022/07/04 13:41:54;;;;;;;1.10;0.70;;;;;;;;;;8316645;28;20471;-58
2022/07/04 13:45:55;;;;;;;1.03;0.80;;;;;;;;;;8318301;28;20036;-60
2022/07/04 13:49:55;;;;;;;0.80;0.80;;;;;;;;;;8319417;28;20475;-59
2022/07/04 13:53:55;;;;;;;1.52;0.73;;;;;;;;;;8317978;28;20024;-59
2022/07/04 13:57:55;;;;;;;1.13;0.70;;;;;;;;;;8316905;28;20033;-59
2022/07/04 14:01:56;;;;;;;1.10;0.80;;;;;;;;;;8315290;28;21371;-58
2022/07/04 14:05:56;;;;;;;1.98;0.60;;;;;;;;;;8319005;28;20143;-59
2022/07/04 14:09:56;;;;;;;2.20;0.75;;;;;;;;;;8317018;28;20445;-58
2022/07/04 14:13:56;;;;;;;2.47;0.70;;;;;;;;;;8317265;28;21589;-58
2022/07/04 14:17:56;;;;;;;0.70;0.70;;;;;;;;;;8318988;28;20117;-58
2022/07/04 14:21:57;;;;;;;1.48;0.90;;;;;;;;;;8316376;28;20799;-58
2022/07/04 14:25:57;;;;;;;3.15;0.85;;;;;;;;;;8317108;28;20043;-57
2022/07/04 14:29:57;;;;;;;3.38;0.80;;;;;;;;;;8318427;28;20024;-58
2022/07/04 14:33:57;;;;;;;1.95;0.93;;;;;;;;;;8311883;28;20522;-58
2022/07/04 14:37:58;;;;;;;1.38;0.82;;;;;;;;;;8317835;28;20394;-58
2022/07/04 14:41:58;;;;;;;2.35;1.00;;;;;;;;;;8318003;28;20464;-57
2022/07/04 14:45:58;;;;;;;2.13;1.00;;;;;;;;;;8316785;28;20037;-59
2022/07/04 14:49:58;;;;;;;3.30;1.10;;;;;;;;;;8320630;28;20051;-58
2022/07/04 14:53:58;;;;;;;2.33;1.00;;;;;;;;;;8318485;28;20361;-60
2022/07/04 14:57:58;;;;;;;1.30;1.05;;;;;;;;;;8320045;28;20620;-58
2022/07/04 15:01:59;;;;;;;1.90;0.90;;;;;;;;;;8322272;28;20041;-58
2022/07/04 15:05:59;;;;;;;1.15;0.98;;;;;;;;;;8323163;28;20158;-58
2022/07/04 15:09:59;;;;;;;4.60;1.10;;;;;;;;;;8323248;28;20070;-58
2022/07/04 15:14:00;;;;;;;1.20;0.90;;;;;;;;;;8322926;28;20401;-58
2022/07/04 15:18:00;;;;;;;0.90;0.70;;;;;;;;;;8320815;28;20049;-58
2022/07/04 15:26:19;;;;;;;1.60;0.98;;;;;;;;;;8321547;28;20125;-58
2022/07/04 15:30:19;;;;;;;2.65;1.05;;;;;;;;;;8322534;28;20029;-59
2022/07/04 15:34:20;;;;;;;0.90;0.90;;;;;;;;;;8321244;28;20362;-58
2022/07/04 15:38:20;;;;;;;2.53;0.90;;;;;;;;;;8321014;28;20025;-60
2022/07/04 15:42:20;;;;;;;1.80;0.93;;;;;;;;;;8319512;28;20313;-58
2022/07/04 15:46:22;;;;;;;1.35;0.80;;;;;;;;;;8321475;28;20393;-59
2022/07/04 15:50:23;;;;;;;1.17;0.90;;;;;;;;;;8321483;28;20029;-57
2022/07/04 15:54:23;;;;;;;3.10;1.00;;;;;;;;;;8318658;28;20512;-59
2022/07/04 15:58:23;;;;;;;1.55;0.90;;;;;;;;;;8320080;28;20030;-58
2022/07/04 16:02:24;;;;;;;1.95;0.80;;;;;;;;;;8321476;28;20041;-57
2022/07/04 16:06:24;;;;;;;2.22;0.85;;;;;;;;;;8321107;28;20116;-58
2022/07/04 16:10:24;;;;;;;3.10;0.73;;;;;;;;;;8319997;28;20080;-58
2022/07/04 16:14:24;;;;;;;2.87;0.80;;;;;;;;;;8319426;28;20040;-59
2022/07/04 16:18:24;;;;;;;2.58;0.80;;;;;;;;;;8319394;28;20453;-58
2022/07/04 16:22:25;;;;;;;4.30;0.75;;;;;;;;;;8320032;28;20221;-58
2022/07/04 16:26:25;;;;;;;5.75;0.82;;;;;;;;;;8320446;28;20051;-59
2022/07/04 16:30:25;;;;;;;3.42;0.90;;;;;;;;;;8320153;28;20623;-57
2022/07/04 16:34:26;;;;;;;1.00;0.70;;;;;;;;;;8321129;28;20017;-58
2022/07/04 16:38:26;;;;;;;3.17;0.80;;;;;;;;;;8320503;28;20029;-59
2022/07/04 16:42:26;;;;;;;4.75;0.68;;;;;;;;;;8319564;28;20032;-60
2022/07/04 16:46:26;;;;;;;1.42;0.70;;;;;;;;;;8317813;28;20154;-59
2022/07/04 16:50:26;;;;;;;0.93;0.70;;;;;;;;;;8316362;28;20696;-59
2022/07/04 16:54:27;;;;;;;1.10;0.73;;;;;;;;;;8319440;28;20135;-59
2022/07/04 16:58:27;;;;;;;1.25;0.77;;;;;;;;;;8318917;28;20033;-59
2022/07/04 17:02:27;;;;;;;2.85;0.70;;;;;;;;;;8317442;28;20114;-60
2022/07/04 17:06:27;;;;;;;1.83;0.70;;;;;;;;;;8320137;28;20157;-58
2022/07/04 17:10:28;;;;;;;1.88;0.80;;;;;;;;;;8317362;28;20029;-58
2022/07/04 17:14:29;;;;;;;0.93;0.73;;;;;;;;;;8315052;28;20055;-59
2022/07/04 17:18:29;;;;;;;7.05;0.75;;;;;;;;;;8316091;28;20045;-59
2022/07/04 17:22:29;;;;;;;1.50;0.70;;;;;;;;;;8317496;28;20090;-58
2022/07/04 17:26:29;;;;;;;1.02;0.70;;;;;;;;;;8314131;28;20170;-58
2022/07/04 17:30:29;;;;;;;1.02;0.70;;;;;;;;;;8317138;28;20051;-59
2022/07/04 17:34:30;;;;;;;1.05;0.55;;;;;;;;;;8315148;28;20060;-59
2022/07/04 17:38:30;;;;;;;0.68;0.60;;;;;;;;;;8316744;28;20032;-59
2022/07/04 17:42:30;;;;;;;2.42;0.70;;;;;;;;;;8320532;28;20052;-59
2022/07/04 17:46:30;;;;;;;1.95;0.60;;;;;;;;;;8323366;28;20146;-60
2022/07/04 17:50:31;;;;;;;1.50;0.77;;;;;;;;;;8323114;28;20025;-59
2022/07/04 17:54:31;;;;;;;2.30;0.85;;;;;;;;;;8324611;28;20021;-59
2022/07/04 17:58:31;;;;;;;0.50;0.50;;;;;;;;;;8324396;28;20026;-59
2022/07/04 18:02:31;;;;;;;2.50;0.50;;;;;;;;;;8324005;28;20060;-60
2022/07/04 18:06:31;;;;;;;0.77;0.68;;;;;;;;;;8322233;28;20581;-59
2022/07/04 18:10:32;;;;;;;1.75;0.60;;;;;;;;;;8320853;28;20039;-60
2022/07/04 18:14:32;;;;;;;3.53;0.60;;;;;;;;;;8324684;28;20132;-63
2022/07/04 18:18:33;;;;;;;2.10;0.60;;;;;;;;;;8322456;28;20041;-60
2022/07/04 18:22:33;;;;;;;6.43;0.90;;;;;;;;;;8327161;28;20017;-59
2022/07/04 18:26:34;;;;;;;1.73;0.50;;;;;;;;;;8322263;28;20140;-59
2022/07/04 18:30:34;;;;;;;1.50;0.70;;;;;;;;;;8327936;28;20105;-59
2022/07/04 18:34:34;;;;;;;2.53;0.60;;;;;;;;;;8329573;28;20057;-61
2022/07/04 18:38:35;;;;;;;4.15;0.75;;;;;;;;;;8333534;28;20044;-59
2022/07/04 18:46:58;;;;;;;5.72;0.70;;;;;;;;;;8325234;28;20593;-59
2022/07/04 18:50:58;;;;;;;8.13;0.80;;;;;;;;;;8321755;28;20458;-59
2022/07/04 18:54:59;;;;;;;1.60;0.63;;;;;;;;;;8320644;28;20186;-59
2022/07/04 18:58:59;;;;;;;0.50;0.50;;;;;;;;;;8322868;28;20098;-59
2022/07/04 19:03:00;;;;;;;0.82;0.65;;;;;;;;;;8317776;28;20311;-60
2022/07/04 19:07:00;;;;;;;2.28;0.60;;;;;;;;;;8319219;28;20036;-60
2022/07/04 19:11:00;;;;;;;0.73;0.70;;;;;;;;;;8320528;28;20036;-59
2022/07/04 19:15:01;;;;;;;1.13;0.60;;;;;;;;;;8319633;28;20028;-60
2022/07/04 19:19:01;;;;;;;1.02;0.73;;;;;;;;;;8318256;28;20076;-60
2022/07/04 19:23:01;;;;;;;0.75;0.60;;;;;;;;;;8317821;28;20029;-60
2022/07/04 19:27:01;;;;;;;1.95;0.73;;;;;;;;;;8315609;28;20049;-60
2022/07/04 19:31:03;;;;;;;1.30;0.77;;;;;;;;;;8315581;28;20049;-61
2022/07/04 19:35:04;;;;;;;0.70;0.70;;;;;;;;;;8316793;28;20117;-60
2022/07/04 19:39:04;;;;;;;1.25;0.50;;;;;;;;;;8311393;28;20028;-61
2022/07/04 19:43:05;;;;;;;0.50;0.50;;;;;;;;;;8318814;28;20824;-59
2022/07/04 19:47:05;;;;;;;3.78;0.70;;;;;;;;;;8314146;28;20061;-60
2022/07/04 19:51:08;;;;;;;2.22;0.70;;;;;;;;;;8317363;28;20115;-60
2022/07/04 19:55:09;;;;;;;0.68;0.50;;;;;;;;;;8316060;28;20029;-60
2022/07/04 19:59:09;;;;;;;4.10;0.70;;;;;;;;;;8317675;28;21226;-60
2022/07/04 20:03:09;;;;;;;3.00;0.80;;;;;;;;;;8315816;28;20076;-60
2022/07/04 20:07:10;;;;;;;1.67;0.68;;;;;;;;;;8320422;28;20063;-61
2022/07/04 20:11:10;;;;;;;0.75;0.70;;;;;;;;;;8329584;28;20673;-60
2022/07/04 20:15:11;;;;;;;0.50;0.50;;;;;;;;;;8319189;28;20183;-61
2022/07/04 20:19:12;;;;;;;0.90;0.50;;;;;;;;;;8319916;28;20032;-60
2022/07/04 20:23:12;;;;;;;0.60;0.60;;;;;;;;;;8325036;28;20828;-62
2022/07/04 20:27:13;;;;;;;0.63;0.50;;;;;;;;;;8322383;28;20569;-60
2022/07/04 20:31:13;;;;;;;2.28;0.68;;;;;;;;;;8322267;28;20041;-61
2022/07/04 20:35:15;;;;;;;0.60;0.60;;;;;;;;;;8320737;28;20134;-61
2022/07/04 20:39:15;;;;;;;0.60;0.60;;;;;;;;;;8324678;28;20037;-60
2022/07/04 20:43:16;;;;;;;0.85;0.50;;;;;;;;;;8322297;28;20982;-60
2022/07/04 20:47:17;;;;;;;1.23;0.60;;;;;;;;;;8323909;28;20300;-61
2022/07/04 20:51:17;;;;;;;1.08;0.70;;;;;;;;;;8320118;28;20258;-60
2022/07/04 20:55:17;;;;;;;1.70;0.60;;;;;;;;;;8321376;28;20035;-60
2022/07/04 20:59:18;;;;;;;4.75;0.80;;;;;;;;;;8317633;28;20032;-60
2022/07/04 21:03:18;;;;;;;2.80;0.70;;;;;;;;;;8320030;28;20148;-60
2022/07/04 21:07:18;;;;;;;1.20;0.70;;;;;;;;;;8324896;28;20430;-61
2022/07/04 21:11:18;;;;;;;1.95;0.73;;;;;;;;;;8315369;28;20032;-60
2022/07/04 21:15:19;;;;;;;1.10;0.70;;;;;;;;;;8321135;28;20025;-60
2022/07/04 21:19:19;;;;;;;1.63;0.73;;;;;;;;;;8321605;28;20900;-61
2022/07/04 21:23:19;;;;;;;4.43;0.80;;;;;;;;;;8322783;28;20034;-61
2022/07/04 21:27:19;;;;;;;0.95;0.70;;;;;;;;;;8324115;28;20107;-60
2022/07/04 21:31:20;;;;;;;1.83;0.60;;;;;;;;;;8320490;28;20745;-61
2022/07/04 21:35:20;;;;;;;0.82;0.60;;;;;;;;;;8323651;28;20113;-60
2022/07/04 21:39:22;;;;;;;1.20;0.60;;;;;;;;;;8321986;28;20553;-60
2022/07/04 21:43:22;;;;;;;2.03;0.70;;;;;;;;;;8323054;28;20025;-62
2022/07/04 21:47:22;;;;;;;1.17;0.70;;;;;;;;;;8316628;28;20908;-61
2022/07/04 21:51:23;;;;;;;1.20;0.65;;;;;;;;;;8318780;28;20021;-60
2022/07/04 21:55:23;;;;;;;2.38;0.70;;;;;;;;;;8321358;28;20164;-60
2022/07/04 21:59:23;;;;;;;1.85;0.77;;;;;;;;;;8322284;28;20021;-61
2022/07/04 22:03:23;;;;;;;2.80;0.80;;;;;;;;;;8316771;28;20049;-60
2022/07/04 22:07:24;;;;;;;1.27;0.70;;;;;;;;;;8321385;28;20052;-60
2022/07/04 22:11:24;;;;;;;1.65;0.80;;;;;;;;;;8322958;28;20020;-60
2022/07/04 22:15:24;;;;;;;2.20;0.82;;;;;;;;;;8323710;28;20032;-60
2022/07/04 22:19:24;;;;;;;2.00;0.75;;;;;;;;;;8319590;28;20958;-60
2022/07/04 22:23:25;;;;;;;1.98;0.80;;;;;;;;;;8320323;28;20121;-60
2022/07/04 22:27:25;;;;;;;1.37;0.80;;;;;;;;;;8318957;28;20029;-60
2022/07/04 22:31:25;;;;;;;4.03;0.80;;;;;;;;;;8316219;28;20280;-60
2022/07/04 22:35:26;;;;;;;1.98;0.80;;;;;;;;;;8321938;28;20126;-60
2022/07/04 22:39:26;;;;;;;3.20;0.70;;;;;;;;;;8319671;28;20106;-60
2022/07/04 22:43:26;;;;;;;1.58;0.68;;;;;;;;;;8318826;28;20067;-60
2022/07/04 22:47:26;;;;;;;1.95;0.73;;;;;;;;;;8323111;28;20048;-60
2022/07/04 22:51:26;;;;;;;2.05;0.70;;;;;;;;;;8321983;28;20032;-60
2022/07/04 22:55:27;;;;;;;1.60;0.65;;;;;;;;;;8321996;28;20036;-60
2022/07/04 22:59:27;;;;;;;0.60;0.60;;;;;;;;;;8320441;28;20628;-60
2022/07/04 23:03:27;;;;;;;1.80;0.88;;;;;;;;;;8317068;28;20036;-60
2022/07/04 23:07:27;;;;;;;2.13;0.68;;;;;;;;;;8321312;28;20457;-61
2022/07/04 23:11:27;;;;;;;2.85;0.82;;;;;;;;;;8322110;28;20032;-60
2022/07/04 23:15:28;;;;;;;2.15;0.70;;;;;;;;;;8323840;28;20040;-60
2022/07/04 23:19:29;;;;;;;2.13;0.90;;;;;;;;;;8327370;28;20543;-60
2022/07/04 23:23:29;;;;;;;1.08;0.77;;;;;;;;;;8324474;28;20350;-60
2022/07/04 23:27:29;;;;;;;2.03;0.80;;;;;;;;;;8326437;28;20112;-60
2022/07/04 23:31:29;;;;;;;1.38;0.63;;;;;;;;;;8325520;28;20037;-60
2022/07/04 23:35:29;;;;;;;1.55;0.73;;;;;;;;;;8322476;28;20085;-60
2022/07/04 23:39:30;;;;;;;1.90;0.90;;;;;;;;;;8319735;28;20534;-60
2022/07/04 23:43:30;;;;;;;3.07;1.00;;;;;;;;;;8322594;28;20036;-60
2022/07/04 23:47:30;;;;;;;2.40;0.70;;;;;;;;;;8321452;28;20044;-60
2022/07/04 23:51:30;;;;;;;1.48;0.80;;;;;;;;;;8319230;28;20029;-61
2022/07/04 23:55:30;;;;;;;4.72;0.88;;;;;;;;;;8317658;28;20029;-60
2022/07/04 23:59:31;;;;;;;1.35;0.70;;;;;;;;;;8321611;28;20367;-61
